sensor_id;sensor_type;location;lat;lon;timestamp;P1;durP1;ratioP1;P2;durP2;ratioP2
26335;SDS011;14047;50.936;4.654;2023-09-19T00:01:42;15.40;;;3.05;;
26335;SDS011;14047;50.936;4.654;2023-09-19T00:04:11;8.95;;;2.13;;
26335;SDS011;14047;50.936;4.654;2023-09-19T00:06:38;10.98;;;1.90;;
26335;SDS011;14047;50.936;4.654;2023-09-19T00:09:04;12.98;;;2.65;;
26335;SDS011;14047;50.936;4.654;2023-09-19T00:11:36;14.90;;;1.67;;
26335;SDS011;14047;50.936;4.654;2023-09-19T00:14:02;9.13;;;1.85;;
26335;SDS011;14047;50.936;4.654;2023-09-19T00:16:30;11.30;;;2.13;;
26335;SDS011;14047;50.936;4.654;2023-09-19T00:18:57;9.25;;;1.98;;
26335;SDS011;14047;50.936;4.654;2023-09-19T00:21:24;9.55;;;1.80;;
26335;SDS011;14047;50.936;4.654;2023-09-19T00:23:50;9.40;;;2.13;;
26335;SDS011;14047;50.936;4.654;2023-09-19T00:26:17;13.18;;;2.22;;
26335;SDS011;14047;50.936;4.654;2023-09-19T00:28:47;7.80;;;1.85;;
26335;SDS011;14047;50.936;4.654;2023-09-19T00:31:13;11.73;;;1.50;;
26335;SDS011;14047;50.936;4.654;2023-09-19T00:33:39;12.82;;;2.28;;
26335;SDS011;14047;50.936;4.654;2023-09-19T00:36:04;12.43;;;3.17;;
26335;SDS011;14047;50.936;4.654;2023-09-19T00:38:31;8.18;;;1.65;;
26335;SDS011;14047;50.936;4.654;2023-09-19T00:40:57;7.47;;;1.40;;
26335;SDS011;14047;50.936;4.654;2023-09-19T00:43:25;11.13;;;2.45;;
26335;SDS011;14047;50.936;4.654;2023-09-19T00:45:53;11.07;;;1.67;;
26335;SDS011;14047;50.936;4.654;2023-09-19T00:48:20;12.68;;;2.10;;
26335;SDS011;14047;50.936;4.654;2023-09-19T00:50:47;15.77;;;2.20;;
26335;SDS011;14047;50.936;4.654;2023-09-19T00:53:19;8.73;;;1.67;;
26335;SDS011;14047;50.936;4.654;2023-09-19T00:55:46;12.23;;;2.38;;
26335;SDS011;14047;50.936;4.654;2023-09-19T00:58:13;11.10;;;1.90;;
26335;SDS011;14047;50.936;4.654;2023-09-19T01:00:40;8.35;;;1.63;;
26335;SDS011;14047;50.936;4.654;2023-09-19T01:03:06;9.90;;;1.52;;
26335;SDS011;14047;50.936;4.654;2023-09-19T01:05:35;14.52;;;2.65;;
26335;SDS011;14047;50.936;4.654;2023-09-19T01:08:01;11.57;;;2.08;;
26335;SDS011;14047;50.936;4.654;2023-09-19T01:10:27;10.57;;;1.92;;
26335;SDS011;14047;50.936;4.654;2023-09-19T01:20:45;12.55;;;2.38;;
26335;SDS011;14047;50.936;4.654;2023-09-19T01:31:31;10.25;;;1.90;;
26335;SDS011;14047;50.936;4.654;2023-09-19T01:34:01;8.73;;;2.00;;
26335;SDS011;14047;50.936;4.654;2023-09-19T01:36:30;16.77;;;2.50;;
26335;SDS011;14047;50.936;4.654;2023-09-19T01:39:02;11.20;;;1.50;;
26335;SDS011;14047;50.936;4.654;2023-09-19T01:41:59;12.60;;;2.13;;
26335;SDS011;14047;50.936;4.654;2023-09-19T01:50:14;9.88;;;1.73;;
26335;SDS011;14047;50.936;4.654;2023-09-19T01:52:50;11.65;;;1.90;;
26335;SDS011;14047;50.936;4.654;2023-09-19T01:55:23;8.13;;;2.00;;
26335;SDS011;14047;50.936;4.654;2023-09-19T01:57:58;14.35;;;2.35;;
26335;SDS011;14047;50.936;4.654;2023-09-19T02:00:36;9.77;;;2.28;;
26335;SDS011;14047;50.936;4.654;2023-09-19T02:03:05;14.23;;;2.35;;
26335;SDS011;14047;50.936;4.654;2023-09-19T02:05:32;10.85;;;1.80;;
26335;SDS011;14047;50.936;4.654;2023-09-19T02:07:58;20.10;;;3.67;;
26335;SDS011;14047;50.936;4.654;2023-09-19T02:10:24;7.40;;;1.77;;
26335;SDS011;14047;50.936;4.654;2023-09-19T02:12:50;12.18;;;2.17;;
26335;SDS011;14047;50.936;4.654;2023-09-19T02:15:16;5.05;;;1.40;;
26335;SDS011;14047;50.936;4.654;2023-09-19T02:17:42;15.30;;;2.05;;
26335;SDS011;14047;50.936;4.654;2023-09-19T02:20:10;9.38;;;2.40;;
26335;SDS011;14047;50.936;4.654;2023-09-19T02:22:41;6.53;;;1.85;;
26335;SDS011;14047;50.936;4.654;2023-09-19T02:25:07;13.48;;;3.25;;
26335;SDS011;14047;50.936;4.654;2023-09-19T02:27:35;9.95;;;1.90;;
26335;SDS011;14047;50.936;4.654;2023-09-19T02:30:01;11.43;;;2.00;;
26335;SDS011;14047;50.936;4.654;2023-09-19T02:32:29;11.63;;;2.55;;
26335;SDS011;14047;50.936;4.654;2023-09-19T02:35:01;13.43;;;1.88;;
26335;SDS011;14047;50.936;4.654;2023-09-19T02:37:30;12.68;;;2.38;;
26335;SDS011;14047;50.936;4.654;2023-09-19T02:39:57;10.45;;;2.30;;
26335;SDS011;14047;50.936;4.654;2023-09-19T02:42:23;9.40;;;2.67;;
26335;SDS011;14047;50.936;4.654;2023-09-19T02:44:48;17.40;;;2.47;;
26335;SDS011;14047;50.936;4.654;2023-09-19T02:47:14;14.73;;;2.10;;
26335;SDS011;14047;50.936;4.654;2023-09-19T02:49:42;10.00;;;3.42;;
26335;SDS011;14047;50.936;4.654;2023-09-19T02:52:09;9.50;;;1.98;;
26335;SDS011;14047;50.936;4.654;2023-09-19T02:54:37;13.07;;;2.10;;
26335;SDS011;14047;50.936;4.654;2023-09-19T02:57:03;10.27;;;1.83;;
26335;SDS011;14047;50.936;4.654;2023-09-19T02:59:32;11.52;;;2.15;;
26335;SDS011;14047;50.936;4.654;2023-09-19T03:01:58;11.43;;;2.55;;
26335;SDS011;14047;50.936;4.654;2023-09-19T03:04:24;12.27;;;2.35;;
26335;SDS011;14047;50.936;4.654;2023-09-19T03:06:52;9.68;;;1.90;;
26335;SDS011;14047;50.936;4.654;2023-09-19T03:09:24;17.73;;;2.38;;
26335;SDS011;14047;50.936;4.654;2023-09-19T03:11:50;10.23;;;1.83;;
26335;SDS011;14047;50.936;4.654;2023-09-19T03:14:16;12.60;;;2.10;;
26335;SDS011;14047;50.936;4.654;2023-09-19T03:16:43;15.73;;;2.97;;
26335;SDS011;14047;50.936;4.654;2023-09-19T03:19:10;14.02;;;1.95;;
26335;SDS011;14047;50.936;4.654;2023-09-19T03:21:36;17.58;;;2.10;;
26335;SDS011;14047;50.936;4.654;2023-09-19T03:24:04;12.15;;;2.75;;
26335;SDS011;14047;50.936;4.654;2023-09-19T03:26:32;13.05;;;2.10;;
26335;SDS011;14047;50.936;4.654;2023-09-19T03:28:59;12.50;;;2.03;;
26335;SDS011;14047;50.936;4.654;2023-09-19T03:31:25;10.65;;;2.28;;
26335;SDS011;14047;50.936;4.654;2023-09-19T03:33:51;10.90;;;2.33;;
26335;SDS011;14047;50.936;4.654;2023-09-19T03:36:17;15.05;;;2.25;;
26335;SDS011;14047;50.936;4.654;2023-09-19T03:38:43;9.60;;;2.60;;
26335;SDS011;14047;50.936;4.654;2023-09-19T03:41:09;9.63;;;2.00;;
26335;SDS011;14047;50.936;4.654;2023-09-19T03:43:36;10.68;;;2.05;;
26335;SDS011;14047;50.936;4.654;2023-09-19T03:46:03;13.93;;;2.45;;
26335;SDS011;14047;50.936;4.654;2023-09-19T03:48:31;8.18;;;1.88;;
26335;SDS011;14047;50.936;4.654;2023-09-19T03:50:57;10.32;;;1.75;;
26335;SDS011;14047;50.936;4.654;2023-09-19T03:53:23;7.15;;;2.03;;
26335;SDS011;14047;50.936;4.654;2023-09-19T03:55:49;15.98;;;2.30;;
26335;SDS011;14047;50.936;4.654;2023-09-19T03:58:16;11.18;;;2.67;;
26335;SDS011;14047;50.936;4.654;2023-09-19T04:00:41;9.05;;;2.00;;
26335;SDS011;14047;50.936;4.654;2023-09-19T04:03:07;14.63;;;2.33;;
26335;SDS011;14047;50.936;4.654;2023-09-19T04:05:34;16.08;;;2.30;;
26335;SDS011;14047;50.936;4.654;2023-09-19T04:08:00;13.93;;;2.28;;
26335;SDS011;14047;50.936;4.654;2023-09-19T04:10:26;13.57;;;2.03;;
26335;SDS011;14047;50.936;4.654;2023-09-19T04:12:53;13.23;;;2.15;;
26335;SDS011;14047;50.936;4.654;2023-09-19T04:15:21;10.00;;;1.80;;
26335;SDS011;14047;50.936;4.654;2023-09-19T04:17:49;7.72;;;1.85;;
26335;SDS011;14047;50.936;4.654;2023-09-19T04:20:16;12.10;;;2.35;;
26335;SDS011;14047;50.936;4.654;2023-09-19T04:22:45;9.00;;;2.08;;
26335;SDS011;14047;50.936;4.654;2023-09-19T04:25:11;14.77;;;2.67;;
26335;SDS011;14047;50.936;4.654;2023-09-19T04:27:37;12.70;;;2.10;;
26335;SDS011;14047;50.936;4.654;2023-09-19T04:30:04;8.68;;;2.13;;
26335;SDS011;14047;50.936;4.654;2023-09-19T04:32:35;14.93;;;2.03;;
26335;SDS011;14047;50.936;4.654;2023-09-19T04:35:05;16.42;;;2.70;;
26335;SDS011;14047;50.936;4.654;2023-09-19T04:37:35;15.13;;;2.45;;
26335;SDS011;14047;50.936;4.654;2023-09-19T04:40:08;13.13;;;2.00;;
26335;SDS011;14047;50.936;4.654;2023-09-19T04:42:40;13.50;;;2.20;;
26335;SDS011;14047;50.936;4.654;2023-09-19T04:45:06;8.30;;;2.15;;
26335;SDS011;14047;50.936;4.654;2023-09-19T04:47:34;15.43;;;2.65;;
26335;SDS011;14047;50.936;4.654;2023-09-19T04:50:00;16.52;;;2.10;;
26335;SDS011;14047;50.936;4.654;2023-09-19T04:52:26;12.13;;;2.63;;
26335;SDS011;14047;50.936;4.654;2023-09-19T04:54:56;18.65;;;2.88;;
26335;SDS011;14047;50.936;4.654;2023-09-19T04:57:22;18.42;;;3.20;;
26335;SDS011;14047;50.936;4.654;2023-09-19T04:59:48;13.55;;;2.55;;
26335;SDS011;14047;50.936;4.654;2023-09-19T05:02:15;16.85;;;2.30;;
26335;SDS011;14047;50.936;4.654;2023-09-19T05:04:41;11.95;;;2.08;;
26335;SDS011;14047;50.936;4.654;2023-09-19T05:07:07;16.42;;;2.70;;
26335;SDS011;14047;50.936;4.654;2023-09-19T05:09:33;11.85;;;2.00;;
26335;SDS011;14047;50.936;4.654;2023-09-19T05:12:00;14.07;;;2.63;;
26335;SDS011;14047;50.936;4.654;2023-09-19T05:14:26;11.43;;;2.33;;
26335;SDS011;14047;50.936;4.654;2023-09-19T05:16:52;12.43;;;1.88;;
26335;SDS011;14047;50.936;4.654;2023-09-19T05:19:17;11.82;;;1.90;;
26335;SDS011;14047;50.936;4.654;2023-09-19T05:21:43;18.08;;;2.80;;
26335;SDS011;14047;50.936;4.654;2023-09-19T05:24:09;15.45;;;3.60;;
26335;SDS011;14047;50.936;4.654;2023-09-19T05:26:37;15.13;;;2.90;;
26335;SDS011;14047;50.936;4.654;2023-09-19T05:29:05;11.70;;;1.98;;
26335;SDS011;14047;50.936;4.654;2023-09-19T05:31:33;13.18;;;2.55;;
26335;SDS011;14047;50.936;4.654;2023-09-19T05:34:01;12.07;;;1.67;;
26335;SDS011;14047;50.936;4.654;2023-09-19T05:36:28;14.52;;;2.28;;
26335;SDS011;14047;50.936;4.654;2023-09-19T05:38:55;17.67;;;2.35;;
26335;SDS011;14047;50.936;4.654;2023-09-19T05:41:21;13.60;;;1.98;;
26335;SDS011;14047;50.936;4.654;2023-09-19T05:43:48;7.18;;;1.67;;
26335;SDS011;14047;50.936;4.654;2023-09-19T05:46:15;16.35;;;3.78;;
26335;SDS011;14047;50.936;4.654;2023-09-19T05:48:42;15.90;;;2.28;;
26335;SDS011;14047;50.936;4.654;2023-09-19T05:51:09;13.50;;;2.03;;
26335;SDS011;14047;50.936;4.654;2023-09-19T05:53:35;11.40;;;1.63;;
26335;SDS011;14047;50.936;4.654;2023-09-19T05:56:01;8.73;;;1.63;;
26335;SDS011;14047;50.936;4.654;2023-09-19T05:58:27;11.18;;;1.75;;
26335;SDS011;14047;50.936;4.654;2023-09-19T06:00:54;11.20;;;1.98;;
26335;SDS011;14047;50.936;4.654;2023-09-19T06:03:20;12.18;;;2.08;;
26335;SDS011;14047;50.936;4.654;2023-09-19T06:05:46;8.75;;;1.60;;
26335;SDS011;14047;50.936;4.654;2023-09-19T06:08:14;12.07;;;2.30;;
26335;SDS011;14047;50.936;4.654;2023-09-19T06:10:40;18.42;;;2.47;;
26335;SDS011;14047;50.936;4.654;2023-09-19T06:13:06;14.00;;;1.98;;
26335;SDS011;14047;50.936;4.654;2023-09-19T06:15:35;12.93;;;2.25;;
26335;SDS011;14047;50.936;4.654;2023-09-19T06:18:01;9.15;;;2.15;;
26335;SDS011;14047;50.936;4.654;2023-09-19T06:20:30;13.27;;;3.05;;
26335;SDS011;14047;50.936;4.654;2023-09-19T06:22:56;10.48;;;1.77;;
26335;SDS011;14047;50.936;4.654;2023-09-19T06:25:22;13.48;;;2.38;;
26335;SDS011;14047;50.936;4.654;2023-09-19T06:27:49;14.43;;;2.33;;
26335;SDS011;14047;50.936;4.654;2023-09-19T06:30:17;15.45;;;2.00;;
26335;SDS011;14047;50.936;4.654;2023-09-19T06:32:44;9.90;;;1.98;;
26335;SDS011;14047;50.936;4.654;2023-09-19T06:35:10;17.83;;;2.72;;
26335;SDS011;14047;50.936;4.654;2023-09-19T06:37:37;15.27;;;2.15;;
26335;SDS011;14047;50.936;4.654;2023-09-19T06:40:05;12.52;;;2.20;;
26335;SDS011;14047;50.936;4.654;2023-09-19T06:42:34;8.13;;;1.98;;
26335;SDS011;14047;50.936;4.654;2023-09-19T06:45:03;13.98;;;2.20;;
26335;SDS011;14047;50.936;4.654;2023-09-19T06:47:30;16.75;;;2.10;;
26335;SDS011;14047;50.936;4.654;2023-09-19T06:49:57;12.32;;;1.98;;
26335;SDS011;14047;50.936;4.654;2023-09-19T06:52:22;11.70;;;1.95;;
26335;SDS011;14047;50.936;4.654;2023-09-19T06:54:48;13.63;;;2.15;;
26335;SDS011;14047;50.936;4.654;2023-09-19T06:57:16;9.43;;;1.80;;
26335;SDS011;14047;50.936;4.654;2023-09-19T06:59:41;15.48;;;3.05;;
26335;SDS011;14047;50.936;4.654;2023-09-19T07:02:07;9.88;;;1.80;;
26335;SDS011;14047;50.936;4.654;2023-09-19T07:04:33;9.05;;;1.75;;
26335;SDS011;14047;50.936;4.654;2023-09-19T07:06:59;14.88;;;2.50;;
26335;SDS011;14047;50.936;4.654;2023-09-19T07:09:25;12.30;;;1.77;;
26335;SDS011;14047;50.936;4.654;2023-09-19T07:11:53;13.65;;;1.88;;
26335;SDS011;14047;50.936;4.654;2023-09-19T07:14:19;8.43;;;1.65;;
26335;SDS011;14047;50.936;4.654;2023-09-19T07:16:45;12.23;;;1.83;;
26335;SDS011;14047;50.936;4.654;2023-09-19T07:19:15;12.15;;;2.08;;
26335;SDS011;14047;50.936;4.654;2023-09-19T07:21:41;9.73;;;2.03;;
26335;SDS011;14047;50.936;4.654;2023-09-19T07:24:08;13.80;;;1.98;;
26335;SDS011;14047;50.936;4.654;2023-09-19T07:26:34;17.58;;;2.17;;
26335;SDS011;14047;50.936;4.654;2023-09-19T07:29:00;9.30;;;2.28;;
26335;SDS011;14047;50.936;4.654;2023-09-19T07:31:29;15.73;;;2.30;;
26335;SDS011;14047;50.936;4.654;2023-09-19T07:33:56;7.90;;;1.95;;
26335;SDS011;14047;50.936;4.654;2023-09-19T07:36:22;10.25;;;2.72;;
26335;SDS011;14047;50.936;4.654;2023-09-19T07:38:49;7.45;;;2.03;;
26335;SDS011;14047;50.936;4.654;2023-09-19T07:41:15;8.80;;;1.70;;
26335;SDS011;14047;50.936;4.654;2023-09-19T07:43:41;9.20;;;2.63;;
26335;SDS011;14047;50.936;4.654;2023-09-19T07:46:08;9.18;;;2.05;;
26335;SDS011;14047;50.936;4.654;2023-09-19T07:48:35;10.13;;;2.40;;
26335;SDS011;14047;50.936;4.654;2023-09-19T07:51:02;11.30;;;1.60;;
26335;SDS011;14047;50.936;4.654;2023-09-19T07:53:29;8.35;;;1.58;;
26335;SDS011;14047;50.936;4.654;2023-09-19T07:56:05;25.38;;;2.72;;
26335;SDS011;14047;50.936;4.654;2023-09-19T07:58:32;11.85;;;2.10;;
26335;SDS011;14047;50.936;4.654;2023-09-19T08:01:08;7.65;;;2.00;;
26335;SDS011;14047;50.936;4.654;2023-09-19T08:03:36;10.95;;;2.38;;
26335;SDS011;14047;50.936;4.654;2023-09-19T08:06:09;17.23;;;2.38;;
26335;SDS011;14047;50.936;4.654;2023-09-19T08:08:36;13.23;;;2.10;;
26335;SDS011;14047;50.936;4.654;2023-09-19T08:11:05;8.95;;;2.17;;
26335;SDS011;14047;50.936;4.654;2023-09-19T08:13:40;10.85;;;2.15;;
26335;SDS011;14047;50.936;4.654;2023-09-19T08:16:12;18.17;;;3.05;;
26335;SDS011;14047;50.936;4.654;2023-09-19T08:18:40;9.93;;;2.00;;
26335;SDS011;14047;50.936;4.654;2023-09-19T08:21:06;4.28;;;1.48;;
26335;SDS011;14047;50.936;4.654;2023-09-19T08:23:37;11.60;;;2.42;;
26335;SDS011;14047;50.936;4.654;2023-09-19T08:26:06;13.63;;;2.60;;
26335;SDS011;14047;50.936;4.654;2023-09-19T08:28:33;10.60;;;2.20;;
26335;SDS011;14047;50.936;4.654;2023-09-19T08:31:03;6.10;;;1.77;;
26335;SDS011;14047;50.936;4.654;2023-09-19T08:33:34;7.63;;;2.10;;
26335;SDS011;14047;50.936;4.654;2023-09-19T08:36:02;14.25;;;2.25;;
26335;SDS011;14047;50.936;4.654;2023-09-19T08:38:31;11.13;;;2.42;;
26335;SDS011;14047;50.936;4.654;2023-09-19T08:40:59;17.85;;;2.25;;
26335;SDS011;14047;50.936;4.654;2023-09-19T08:43:25;17.73;;;3.47;;
26335;SDS011;14047;50.936;4.654;2023-09-19T08:45:58;13.40;;;2.95;;
26335;SDS011;14047;50.936;4.654;2023-09-19T08:48:46;8.48;;;2.05;;
26335;SDS011;14047;50.936;4.654;2023-09-19T08:51:45;13.30;;;1.92;;
26335;SDS011;14047;50.936;4.654;2023-09-19T08:54:14;13.25;;;2.30;;
26335;SDS011;14047;50.936;4.654;2023-09-19T08:56:45;9.60;;;2.22;;
26335;SDS011;14047;50.936;4.654;2023-09-19T08:59:13;12.57;;;2.20;;
26335;SDS011;14047;50.936;4.654;2023-09-19T09:01:40;13.55;;;2.35;;
26335;SDS011;14047;50.936;4.654;2023-09-19T09:04:08;13.93;;;1.75;;
26335;SDS011;14047;50.936;4.654;2023-09-19T09:06:37;8.52;;;1.95;;
26335;SDS011;14047;50.936;4.654;2023-09-19T09:09:05;10.38;;;2.20;;
26335;SDS011;14047;50.936;4.654;2023-09-19T09:11:33;12.57;;;1.90;;
26335;SDS011;14047;50.936;4.654;2023-09-19T09:13:59;17.70;;;2.22;;
26335;SDS011;14047;50.936;4.654;2023-09-19T09:16:25;9.05;;;1.98;;
26335;SDS011;14047;50.936;4.654;2023-09-19T09:18:51;8.45;;;1.52;;
26335;SDS011;14047;50.936;4.654;2023-09-19T09:21:20;4.88;;;1.38;;
26335;SDS011;14047;50.936;4.654;2023-09-19T09:23:47;11.77;;;2.00;;
26335;SDS011;14047;50.936;4.654;2023-09-19T09:26:17;8.77;;;1.85;;
26335;SDS011;14047;50.936;4.654;2023-09-19T09:29:15;11.15;;;2.03;;
26335;SDS011;14047;50.936;4.654;2023-09-19T09:31:41;5.97;;;1.83;;
26335;SDS011;14047;50.936;4.654;2023-09-19T09:34:08;11.07;;;1.88;;
26335;SDS011;14047;50.936;4.654;2023-09-19T09:36:38;11.80;;;2.00;;
26335;SDS011;14047;50.936;4.654;2023-09-19T09:39:07;12.60;;;2.15;;
26335;SDS011;14047;50.936;4.654;2023-09-19T09:41:50;9.05;;;2.30;;
26335;SDS011;14047;50.936;4.654;2023-09-19T09:44:17;7.45;;;1.70;;
26335;SDS011;14047;50.936;4.654;2023-09-19T09:46:47;5.88;;;1.40;;
26335;SDS011;14047;50.936;4.654;2023-09-19T09:49:23;9.88;;;1.70;;
26335;SDS011;14047;50.936;4.654;2023-09-19T09:52:02;7.03;;;1.75;;
26335;SDS011;14047;50.936;4.654;2023-09-19T09:55:01;7.20;;;1.85;;
26335;SDS011;14047;50.936;4.654;2023-09-19T09:57:36;6.85;;;1.50;;
26335;SDS011;14047;50.936;4.654;2023-09-19T10:00:06;9.30;;;2.30;;
26335;SDS011;14047;50.936;4.654;2023-09-19T10:02:38;8.65;;;1.70;;
26335;SDS011;14047;50.936;4.654;2023-09-19T10:07:50;8.10;;;2.00;;
26335;SDS011;14047;50.936;4.654;2023-09-19T10:10:31;6.30;;;1.20;;
26335;SDS011;14047;50.936;4.654;2023-09-19T10:13:10;10.80;;;2.28;;
26335;SDS011;14047;50.936;4.654;2023-09-19T10:15:43;7.70;;;1.60;;
26335;SDS011;14047;50.936;4.654;2023-09-19T10:18:18;9.40;;;1.85;;
26335;SDS011;14047;50.936;4.654;2023-09-19T10:20:46;3.85;;;1.20;;
26335;SDS011;14047;50.936;4.654;2023-09-19T10:23:15;5.53;;;1.30;;
26335;SDS011;14047;50.936;4.654;2023-09-19T10:25:47;6.55;;;1.52;;
26335;SDS011;14047;50.936;4.654;2023-09-19T10:28:15;6.40;;;1.40;;
26335;SDS011;14047;50.936;4.654;2023-09-19T10:30:42;4.82;;;1.00;;
26335;SDS011;14047;50.936;4.654;2023-09-19T10:33:13;17.13;;;1.60;;
26335;SDS011;14047;50.936;4.654;2023-09-19T10:35:44;15.32;;;1.55;;
26335;SDS011;14047;50.936;4.654;2023-09-19T10:38:11;8.25;;;1.30;;
26335;SDS011;14047;50.936;4.654;2023-09-19T10:40:39;9.18;;;0.90;;
26335;SDS011;14047;50.936;4.654;2023-09-19T10:43:13;3.33;;;0.85;;
26335;SDS011;14047;50.936;4.654;2023-09-19T10:45:47;11.75;;;2.10;;
26335;SDS011;14047;50.936;4.654;2023-09-19T10:48:15;3.83;;;1.00;;
26335;SDS011;14047;50.936;4.654;2023-09-19T10:50:53;4.82;;;1.20;;
26335;SDS011;14047;50.936;4.654;2023-09-19T10:53:26;5.03;;;0.93;;
26335;SDS011;14047;50.936;4.654;2023-09-19T10:55:55;7.88;;;1.25;;
26335;SDS011;14047;50.936;4.654;2023-09-19T10:58:25;6.13;;;1.23;;
26335;SDS011;14047;50.936;4.654;2023-09-19T11:00:55;7.78;;;1.10;;
26335;SDS011;14047;50.936;4.654;2023-09-19T11:03:25;5.88;;;1.00;;
26335;SDS011;14047;50.936;4.654;2023-09-19T11:06:15;6.75;;;1.02;;
26335;SDS011;14047;50.936;4.654;2023-09-19T11:08:57;3.55;;;1.02;;
26335;SDS011;14047;50.936;4.654;2023-09-19T11:30:37;6.65;;;0.98;;
26335;SDS011;14047;50.936;4.654;2023-09-19T11:33:18;5.65;;;0.93;;
26335;SDS011;14047;50.936;4.654;2023-09-19T11:36:05;4.07;;;0.80;;
26335;SDS011;14047;50.936;4.654;2023-09-19T11:46:51;5.97;;;1.05;;
26335;SDS011;14047;50.936;4.654;2023-09-19T11:49:28;3.88;;;0.93;;
26335;SDS011;14047;50.936;4.654;2023-09-19T11:51:57;5.68;;;1.65;;
26335;SDS011;14047;50.936;4.654;2023-09-19T11:54:31;6.47;;;1.08;;
26335;SDS011;14047;50.936;4.654;2023-09-19T11:56:57;4.55;;;0.80;;
26335;SDS011;14047;50.936;4.654;2023-09-19T11:59:25;3.90;;;0.55;;
26335;SDS011;14047;50.936;4.654;2023-09-19T12:01:54;6.00;;;0.85;;
26335;SDS011;14047;50.936;4.654;2023-09-19T12:07:07;6.45;;;1.20;;
26335;SDS011;14047;50.936;4.654;2023-09-19T12:09:50;3.38;;;0.68;;
26335;SDS011;14047;50.936;4.654;2023-09-19T12:12:30;3.22;;;0.80;;
26335;SDS011;14047;50.936;4.654;2023-09-19T12:14:58;9.30;;;0.90;;
26335;SDS011;14047;50.936;4.654;2023-09-19T12:17:37;2.65;;;0.88;;
26335;SDS011;14047;50.936;4.654;2023-09-19T12:20:04;6.40;;;0.80;;
26335;SDS011;14047;50.936;4.654;2023-09-19T12:22:40;7.82;;;1.13;;
26335;SDS011;14047;50.936;4.654;2023-09-19T12:25:12;4.53;;;1.00;;
26335;SDS011;14047;50.936;4.654;2023-09-19T12:27:42;8.00;;;0.70;;
26335;SDS011;14047;50.936;4.654;2023-09-19T12:30:13;5.20;;;1.05;;
26335;SDS011;14047;50.936;4.654;2023-09-19T12:32:40;2.97;;;0.77;;
26335;SDS011;14047;50.936;4.654;2023-09-19T12:35:07;3.50;;;1.23;;
26335;SDS011;14047;50.936;4.654;2023-09-19T12:37:36;4.15;;;0.68;;
26335;SDS011;14047;50.936;4.654;2023-09-19T12:40:03;4.60;;;1.05;;
26335;SDS011;14047;50.936;4.654;2023-09-19T12:42:45;6.22;;;1.10;;
26335;SDS011;14047;50.936;4.654;2023-09-19T12:45:12;5.07;;;0.90;;
26335;SDS011;14047;50.936;4.654;2023-09-19T12:47:40;6.68;;;0.70;;
26335;SDS011;14047;50.936;4.654;2023-09-19T12:50:26;2.20;;;0.65;;
26335;SDS011;14047;50.936;4.654;2023-09-19T12:52:55;5.03;;;0.80;;
26335;SDS011;14047;50.936;4.654;2023-09-19T13:00:50;3.88;;;1.27;;
26335;SDS011;14047;50.936;4.654;2023-09-19T13:05:50;4.15;;;0.70;;
26335;SDS011;14047;50.936;4.654;2023-09-19T13:08:26;4.88;;;1.00;;
26335;SDS011;14047;50.936;4.654;2023-09-19T13:11:01;5.55;;;1.00;;
26335;SDS011;14047;50.936;4.654;2023-09-19T13:14:41;7.90;;;1.25;;
26335;SDS011;14047;50.936;4.654;2023-09-19T13:19:47;1.90;;;0.65;;
26335;SDS011;14047;50.936;4.654;2023-09-19T13:25:30;3.92;;;0.75;;
26335;SDS011;14047;50.936;4.654;2023-09-19T13:27:58;4.95;;;1.15;;
26335;SDS011;14047;50.936;4.654;2023-09-19T13:30:26;6.43;;;0.82;;
26335;SDS011;14047;50.936;4.654;2023-09-19T13:33:04;3.47;;;0.80;;
26335;SDS011;14047;50.936;4.654;2023-09-19T13:35:35;2.05;;;0.65;;
26335;SDS011;14047;50.936;4.654;2023-09-19T13:38:03;3.10;;;0.77;;
26335;SDS011;14047;50.936;4.654;2023-09-19T13:40:29;4.45;;;1.35;;
26335;SDS011;14047;50.936;4.654;2023-09-19T13:43:00;3.88;;;0.70;;
26335;SDS011;14047;50.936;4.654;2023-09-19T13:45:26;9.10;;;1.08;;
26335;SDS011;14047;50.936;4.654;2023-09-19T13:47:56;3.38;;;1.00;;
26335;SDS011;14047;50.936;4.654;2023-09-19T13:50:23;3.67;;;0.90;;
26335;SDS011;14047;50.936;4.654;2023-09-19T13:52:50;6.15;;;1.13;;
26335;SDS011;14047;50.936;4.654;2023-09-19T13:55:16;5.65;;;1.13;;
26335;SDS011;14047;50.936;4.654;2023-09-19T13:57:48;3.72;;;0.98;;
26335;SDS011;14047;50.936;4.654;2023-09-19T14:00:21;4.45;;;1.35;;
26335;SDS011;14047;50.936;4.654;2023-09-19T14:02:48;4.93;;;0.85;;
26335;SDS011;14047;50.936;4.654;2023-09-19T14:05:14;2.10;;;0.95;;
26335;SDS011;14047;50.936;4.654;2023-09-19T14:07:42;2.67;;;0.80;;
26335;SDS011;14047;50.936;4.654;2023-09-19T14:10:09;5.90;;;1.50;;
26335;SDS011;14047;50.936;4.654;2023-09-19T14:12:36;5.43;;;1.60;;
26335;SDS011;14047;50.936;4.654;2023-09-19T14:15:04;5.30;;;1.20;;
26335;SDS011;14047;50.936;4.654;2023-09-19T14:17:30;4.03;;;1.00;;
26335;SDS011;14047;50.936;4.654;2023-09-19T14:19:56;1.77;;;0.80;;
26335;SDS011;14047;50.936;4.654;2023-09-19T14:22:22;4.90;;;1.00;;
26335;SDS011;14047;50.936;4.654;2023-09-19T14:24:48;3.45;;;0.75;;
26335;SDS011;14047;50.936;4.654;2023-09-19T14:27:14;8.48;;;1.45;;
26335;SDS011;14047;50.936;4.654;2023-09-19T14:29:40;6.93;;;1.38;;
26335;SDS011;14047;50.936;4.654;2023-09-19T14:32:06;5.28;;;1.10;;
26335;SDS011;14047;50.936;4.654;2023-09-19T14:34:32;3.90;;;1.23;;
26335;SDS011;14047;50.936;4.654;2023-09-19T14:36:58;4.22;;;1.20;;
26335;SDS011;14047;50.936;4.654;2023-09-19T14:39:24;3.70;;;1.10;;
26335;SDS011;14047;50.936;4.654;2023-09-19T14:41:50;3.60;;;1.50;;
26335;SDS011;14047;50.936;4.654;2023-09-19T14:44:17;3.78;;;1.25;;
26335;SDS011;14047;50.936;4.654;2023-09-19T14:46:42;5.65;;;1.08;;
26335;SDS011;14047;50.936;4.654;2023-09-19T14:49:11;7.50;;;1.65;;
26335;SDS011;14047;50.936;4.654;2023-09-19T14:51:37;8.80;;;1.33;;
26335;SDS011;14047;50.936;4.654;2023-09-19T14:54:07;4.93;;;1.00;;
26335;SDS011;14047;50.936;4.654;2023-09-19T14:56:33;7.45;;;1.30;;
26335;SDS011;14047;50.936;4.654;2023-09-19T14:58:59;5.90;;;1.20;;
26335;SDS011;14047;50.936;4.654;2023-09-19T15:01:25;6.45;;;1.58;;
26335;SDS011;14047;50.936;4.654;2023-09-19T15:03:51;4.60;;;1.00;;
26335;SDS011;14047;50.936;4.654;2023-09-19T15:06:19;3.88;;;1.55;;
26335;SDS011;14047;50.936;4.654;2023-09-19T15:08:46;5.13;;;1.40;;
26335;SDS011;14047;50.936;4.654;2023-09-19T15:11:14;4.88;;;1.08;;
26335;SDS011;14047;50.936;4.654;2023-09-19T15:13:43;3.33;;;1.00;;
26335;SDS011;14047;50.936;4.654;2023-09-19T15:16:10;10.05;;;1.40;;
26335;SDS011;14047;50.936;4.654;2023-09-19T15:18:37;5.70;;;1.50;;
26335;SDS011;14047;50.936;4.654;2023-09-19T15:21:05;4.65;;;1.90;;
26335;SDS011;14047;50.936;4.654;2023-09-19T15:23:32;3.35;;;1.10;;
26335;SDS011;14047;50.936;4.654;2023-09-19T15:26:00;3.22;;;1.00;;
26335;SDS011;14047;50.936;4.654;2023-09-19T15:28:27;4.30;;;1.38;;
26335;SDS011;14047;50.936;4.654;2023-09-19T15:30:58;12.82;;;1.30;;
26335;SDS011;14047;50.936;4.654;2023-09-19T15:33:32;7.18;;;1.48;;
26335;SDS011;14047;50.936;4.654;2023-09-19T15:38:32;8.95;;;1.60;;
26335;SDS011;14047;50.936;4.654;2023-09-19T15:41:26;4.50;;;1.33;;
26335;SDS011;14047;50.936;4.654;2023-09-19T15:43:58;7.25;;;2.15;;
26335;SDS011;14047;50.936;4.654;2023-09-19T15:46:26;7.55;;;1.80;;
26335;SDS011;14047;50.936;4.654;2023-09-19T15:48:54;5.50;;;1.55;;
26335;SDS011;14047;50.936;4.654;2023-09-19T15:51:22;8.35;;;1.77;;
26335;SDS011;14047;50.936;4.654;2023-09-19T15:53:49;7.88;;;1.02;;
26335;SDS011;14047;50.936;4.654;2023-09-19T15:56:17;3.50;;;0.90;;
26335;SDS011;14047;50.936;4.654;2023-09-19T15:58:53;4.97;;;1.17;;
26335;SDS011;14047;50.936;4.654;2023-09-19T16:01:21;6.97;;;1.35;;
26335;SDS011;14047;50.936;4.654;2023-09-19T16:03:48;10.40;;;1.60;;